Time;durP1;ratioP1;P1;durP2;ratioP2;P2;SDS_P1;SDS_P2;PMS_P1;PMS_P2;Temp;Humidity;BMP_temperature;BMP_pressure;BME280_temperature;BME280_humidity;BME280_pressure;Samples;Min_cycle;Max_cycle;Signal;HPM_P1;HPM_P2
2023/07/21 00:00:10;;;;;;;;;2.00;2.00;;;;;14.57;100.00;97997.53;4990222;28;104116;-73
2023/07/21 00:02:38;;;;;;;;;3.00;3.00;;;;;14.51;100.00;97984.88;5004375;27;102492;-73
2023/07/21 00:05:06;;;;;;;;;5.00;5.00;;;;;14.50;100.00;97989.50;5002441;27;102971;-73
2023/07/21 00:07:35;;;;;;;;;4.50;4.50;;;;;14.27;100.00;97960.44;5004912;27;102784;-74
2023/07/21 00:10:07;;;;;;;;;13.00;13.00;;;;;14.39;100.00;98003.97;5006760;27;103645;-73
2023/07/21 00:12:35;;;;;;;;;13.25;12.75;;;;;14.95;100.00;98098.47;5009124;27;102125;-73
2023/07/21 00:15:03;;;;;;;;;15.25;13.50;;;;;14.16;100.00;97980.34;5004431;27;101993;-73
2023/07/21 00:17:32;;;;;;;;;17.50;15.50;;;;;14.32;100.00;98000.50;5009094;28;103463;-73
2023/07/21 00:20:10;;;;;;;;;17.25;15.50;;;;;14.67;100.00;98066.63;5008531;27;109290;-73
2023/07/21 00:22:40;;;;;;;;;17.00;14.50;;;;;14.19;100.00;97985.28;5002913;27;102139;-73
2023/07/21 00:25:10;;;;;;;;;10.00;10.00;;;;;14.01;100.00;97996.31;5000896;27;102155;-73
2023/07/21 00:27:38;;;;;;;;;7.75;6.25;;;;;14.53;100.00;98067.94;5005551;27;102380;-74
2023/07/21 00:30:09;;;;;;;;;6.00;5.00;;;;;14.72;100.00;98090.38;5000731;27;104000;-73
2023/07/21 00:32:38;;;;;;;;;5.50;5.25;;;;;14.67;100.00;98076.66;4998752;27;102437;-72
2023/07/21 00:35:09;;;;;;;;;5.00;4.00;;;;;14.77;100.00;98092.38;5017129;27;102042;-72
2023/07/21 00:37:38;;;;;;;;;2.00;2.00;;;;;14.74;100.00;98074.63;5010622;27;102801;-73
2023/07/21 00:40:15;;;;;;;;;4.00;3.00;;;;;14.85;100.00;98081.13;5002548;27;103423;-72
2023/07/21 00:42:43;;;;;;;;;2.25;2.25;;;;;14.90;100.00;98086.66;5006948;27;102206;-73
2023/07/21 00:45:13;;;;;;;;;2.00;1.50;;;;;14.92;100.00;98088.06;5003895;27;103645;-72
2023/07/21 00:47:41;;;;;;;;;1.75;1.75;;;;;14.98;100.00;98083.56;5007576;27;102401;-74
2023/07/21 00:50:10;;;;;;;;;1.00;1.00;;;;;14.89;100.00;98061.34;5006111;27;106081;-74
2023/07/21 00:52:39;;;;;;;;;1.00;1.00;;;;;15.04;100.00;98071.72;5008662;27;102243;-74
2023/07/21 00:55:10;;;;;;;;;2.00;1.33;;;;;15.07;100.00;98082.94;5022025;27;102430;-72
2023/07/21 00:57:38;;;;;;;;;1.75;1.00;;;;;14.93;100.00;98032.56;5007346;27;102309;-73
2023/07/21 01:00:10;;;;;;;;;1.00;1.00;;;;;15.20;100.00;98068.22;5005415;27;104132;-73
2023/07/21 01:02:38;;;;;;;;;1.25;1.25;;;;;14.34;100.00;97926.84;4999643;27;102294;-73
2023/07/21 01:05:17;;;;;;;;;3.00;1.00;;;;;14.89;100.00;98009.63;5003864;27;104114;-73
2023/07/21 01:08:09;;;;;;;;;1.00;1.00;;;;;15.34;100.00;98072.28;4991456;27;103395;-73
2023/07/21 01:11:03;;;;;;;;;2.50;2.00;;;;;15.32;100.00;98054.53;5002439;27;108303;-73
2023/07/21 01:13:58;;;;;;;;;1.00;1.00;;;;;15.43;100.00;98070.00;4998380;27;102189;-72
2023/07/21 01:16:44;;;;;;;;;1.00;1.00;;;;;15.44;100.00;98066.19;4980803;28;102387;-72
2023/07/21 01:19:26;;;;;;;;;2.33;2.00;;;;;15.42;100.00;98069.16;4973260;28;102157;-72
2023/07/21 01:22:03;;;;;;;;;2.00;2.00;;;;;15.22;100.00;98032.56;4975766;28;110337;-72
2023/07/21 01:25:02;;;;;;;;;3.00;3.00;;;;;15.10;100.00;98016.25;4955694;28;102206;-73
2023/07/21 01:27:30;;;;;;;;;1.00;1.00;;;;;14.91;100.00;97985.69;4951180;28;102248;-73
2023/07/21 01:29:58;;;;;;;;;1.00;1.00;;;;;15.47;100.00;98068.44;4982439;28;105654;-73
2023/07/21 01:32:26;;;;;;;;;2.00;1.00;;;;;15.47;100.00;98071.16;4987715;28;104037;-73
2023/07/21 01:34:56;;;;;;;;;2.00;2.00;;;;;15.06;100.00;97999.59;4960729;28;102105;-73
2023/07/21 01:37:25;;;;;;;;;1.33;1.33;;;;;14.86;100.00;97955.66;4952845;28;103665;-73
2023/07/21 01:39:53;;;;;;;;;2.00;2.00;;;;;14.91;100.00;97968.53;4984319;28;102288;-73
2023/07/21 01:42:25;;;;;;;;;3.00;2.00;;;;;14.76;100.00;97947.31;4985461;28;104243;-73
2023/07/21 01:44:52;;;;;;;;;1.50;1.00;;;;;15.35;100.00;98034.97;4972422;28;102599;-73
2023/07/21 01:47:21;;;;;;;;;2.75;2.00;;;;;14.92;100.00;97951.97;4986853;28;102179;-74
2023/07/21 01:49:48;;;;;;;;;2.33;2.00;;;;;14.91;100.00;97980.25;4966013;28;102283;-73
2023/07/21 01:52:17;;;;;;;;;2.00;2.00;;;;;14.94;100.00;97987.94;4979880;28;108474;-73
2023/07/21 01:54:52;;;;;;;;;2.00;2.00;;;;;15.03;100.00;97981.03;4963596;28;102135;-72
2023/07/21 01:57:30;;;;;;;;;2.00;2.00;;;;;15.57;100.00;98065.91;4962695;28;102027;-76
2023/07/21 01:59:59;;;;;;;;;3.00;3.00;;;;;15.48;100.00;98067.38;4988012;28;102148;-72
2023/07/21 02:02:28;;;;;;;;;2.25;2.00;;;;;15.10;100.00;97987.13;4984341;28;105445;-72
2023/07/21 02:04:56;;;;;;;;;3.00;2.00;;;;;15.41;100.00;98047.59;4988589;28;102188;-72
2023/07/21 02:07:24;;;;;;;;;1.33;1.33;;;;;15.52;100.00;98065.81;4990013;28;102144;-72
2023/07/21 02:09:52;;;;;;;;;3.67;3.00;;;;;15.15;100.00;98008.19;4981023;28;102298;-72
2023/07/21 02:12:20;;;;;;;;;4.67;2.67;;;;;15.54;100.00;98066.38;4988721;28;104099;-73
2023/07/21 02:14:47;;;;;;;;;1.75;1.50;;;;;15.54;100.00;98075.41;5008540;27;102048;-72
2023/07/21 02:17:14;;;;;;;;;3.00;2.25;;;;;15.47;100.00;98066.53;5010572;27;103009;-73
2023/07/21 02:19:42;;;;;;;;;1.50;1.00;;;;;15.53;100.00;98068.31;5003915;27;102682;-74
2023/07/21 02:22:09;;;;;;;;;2.00;2.00;;;;;15.44;100.00;98055.31;5001261;27;103960;-72
2023/07/21 02:24:36;;;;;;;;;2.00;1.50;;;;;15.55;100.00;98077.06;5006264;27;102186;-73
2023/07/21 02:27:04;;;;;;;;;4.00;4.00;;;;;15.47;100.00;98060.25;5009432;27;103178;-73
2023/07/21 02:29:31;;;;;;;;;2.33;2.33;;;;;15.54;100.00;98083.56;5011440;27;102448;-73
2023/07/21 02:31:59;;;;;;;;;1.00;1.00;;;;;15.53;100.00;98084.66;5005491;27;104583;-73
2023/07/21 02:34:29;;;;;;;;;5.00;4.00;;;;;15.51;100.00;98083.25;5007501;27;102401;-73
2023/07/21 02:36:56;;;;;;;;;3.00;3.00;;;;;15.37;100.00;98052.72;5001174;27;102183;-73
2023/07/21 02:39:25;;;;;;;;;2.00;2.00;;;;;15.43;100.00;98076.28;5011255;27;105410;-75
2023/07/21 02:41:52;;;;;;;;;3.75;3.75;;;;;15.44;100.00;98079.81;5010971;28;104006;-73
2023/07/21 02:44:19;;;;;;;;;3.00;3.00;;;;;15.35;100.00;98063.06;5011551;27;102926;-73
2023/07/21 02:46:47;;;;;;;;;3.00;2.00;;;;;15.45;100.00;98087.72;5010698;27;102406;-73
2023/07/21 02:49:16;;;;;;;;;2.00;2.00;;;;;15.39;100.00;98079.72;5011007;27;103355;-73
2023/07/21 02:51:43;;;;;;;;;3.75;3.00;;;;;15.44;100.00;98088.00;5009640;27;104020;-73
2023/07/21 02:54:10;;;;;;;;;3.00;2.50;;;;;15.38;100.00;98076.16;5009337;27;103465;-73
2023/07/21 02:56:38;;;;;;;;;1.00;1.00;;;;;15.40;100.00;98082.19;5009440;28;102374;-73
2023/07/21 02:59:05;;;;;;;;;2.00;2.00;;;;;15.40;100.00;98079.47;5012697;27;102554;-73
2023/07/21 03:01:32;;;;;;;;;2.00;2.00;;;;;15.24;100.00;98060.38;5008393;27;103998;-73
2023/07/21 03:03:59;;;;;;;;;2.25;1.75;;;;;15.28;100.00;98061.53;5009377;27;103473;-74
2023/07/21 03:06:30;;;;;;;;;1.67;1.33;;;;;15.33;100.00;98069.78;5014347;27;102117;-74
2023/07/21 03:08:57;;;;;;;;;1.50;1.50;;;;;15.42;100.00;98085.50;5010857;27;102063;-73
2023/07/21 03:11:24;;;;;;;;;2.00;1.00;;;;;15.39;100.00;98085.19;5005182;27;104056;-73
2023/07/21 03:13:51;;;;;;;;;1.00;1.00;;;;;15.24;100.00;98055.75;5009528;27;102054;-73
2023/07/21 03:16:19;;;;;;;;;1.00;1.00;;;;;15.25;100.00;98059.31;5006486;27;105700;-73
2023/07/21 03:18:46;;;;;;;;;2.00;2.00;;;;;15.28;100.00;98067.81;5009273;27;102173;-73
2023/07/21 03:21:13;;;;;;;;;2.00;1.25;;;;;15.24;100.00;98055.75;5005042;28;103053;-73
2023/07/21 03:23:40;;;;;;;;;2.75;2.00;;;;;15.37;100.00;98076.41;4995928;27;101933;-72
2023/07/21 03:26:07;;;;;;;;;1.75;1.75;;;;;15.33;100.00;98069.78;5011385;27;103318;-72
2023/07/21 03:28:34;;;;;;;;;2.00;1.50;;;;;15.40;100.00;98081.38;5010918;27;102069;-71
2023/07/21 03:31:02;;;;;;;;;1.75;1.75;;;;;15.40;100.00;98076.75;5008016;27;104088;-72
2023/07/21 03:33:38;;;;;;;;;4.00;4.00;;;;;15.20;100.00;98049.13;5020904;27;102687;-72
2023/07/21 03:36:05;;;;;;;;;6.00;5.00;;;;;15.37;100.00;98070.97;5008187;27;102078;-74
2023/07/21 03:38:37;;;;;;;;;4.50;4.00;;;;;15.15;100.00;98028.09;5004706;27;103804;-72
2023/07/21 03:41:06;;;;;;;;;4.25;4.25;;;;;15.45;100.00;98078.72;5004949;27;102455;-72
2023/07/21 03:43:37;;;;;;;;;6.00;5.25;;;;;15.44;100.00;98077.94;5007784;27;101968;-72
2023/07/21 03:46:06;;;;;;;;;3.00;3.00;;;;;15.41;100.00;98063.94;5012491;27;102334;-72
2023/07/21 03:48:37;;;;;;;;;3.00;2.25;;;;;15.36;100.00;98061.13;5006800;27;103999;-73
2023/07/21 03:51:06;;;;;;;;;3.00;3.00;;;;;15.46;100.00;98069.50;5006491;27;102408;-73
2023/07/21 03:53:33;;;;;;;;;3.00;3.00;;;;;15.19;100.00;98034.69;5007461;27;102056;-73
2023/07/21 03:56:05;;;;;;;;;2.75;2.25;;;;;15.51;100.00;98072.34;5007971;27;102241;-73
2023/07/21 03:58:33;;;;;;;;;2.50;2.50;;;;;15.54;100.00;98080.84;5009701;27;104693;-73
2023/07/21 04:01:00;;;;;;;;;3.00;3.00;;;;;15.52;100.00;98066.66;5003792;27;104455;-73
2023/07/21 04:03:28;;;;;;;;;2.00;2.00;;;;;15.62;100.00;98090.53;5003855;27;102362;-73
2023/07/21 04:05:57;;;;;;;;;3.00;3.00;;;;;15.58;100.00;98067.53;5006094;27;102212;-73
2023/07/21 04:08:27;;;;;;;;;3.00;2.50;;;;;15.44;100.00;98038.97;4998840;27;104155;-72
2023/07/21 04:10:54;;;;;;;;;3.00;3.00;;;;;15.59;100.00;98058.31;4997358;27;102514;-72
2023/07/21 04:13:21;;;;;;;;;2.25;2.25;;;;;15.69;100.00;98074.00;5002890;27;102386;-72
2023/07/21 04:15:51;;;;;;;;;1.00;1.00;;;;;15.78;100.00;98076.09;4987640;27;102947;-72
2023/07/21 04:18:18;;;;;;;;;2.33;0.67;;;;;15.85;100.00;98079.47;4997473;27;104039;-72
2023/07/21 04:20:45;;;;;;;;;2.67;2.00;;;;;15.77;100.00;98051.78;4996659;27;102561;-72
2023/07/21 04:23:13;;;;;;;;;1.00;1.00;;;;;15.92;100.00;98071.13;4988302;27;105473;-73
2023/07/21 04:25:40;;;;;;;;;2.00;2.00;;;;;15.99;100.00;98071.78;5020647;27;102630;-72
2023/07/21 04:28:07;;;;;;;;;2.00;2.00;;;;;15.80;100.00;98038.50;4995191;27;104014;-72
2023/07/21 04:30:34;;;;;;;;;2.00;2.00;;;;;16.03;99.50;98071.03;5009316;27;102258;-72
2023/07/21 04:33:03;;;;;;;;;2.33;1.33;;;;;16.04;99.17;98061.78;4979776;28;102341;-72
2023/07/21 04:35:31;;;;;;;;;2.50;2.00;;;;;16.04;99.49;98067.25;4982234;27;102675;-72
2023/07/21 04:37:59;;;;;;;;;2.00;2.00;;;;;15.94;99.66;98045.25;4994116;27;103233;-73
2023/07/21 04:40:26;;;;;;;;;3.00;3.00;;;;;16.02;99.23;98061.22;4985034;27;102334;-73
2023/07/21 04:42:53;;;;;;;;;2.00;2.00;;;;;15.95;99.60;98052.38;4984686;27;102959;-73
2023/07/21 04:45:20;;;;;;;;;2.67;2.67;;;;;16.02;100.00;98074.88;4974746;27;103176;-73
2023/07/21 04:47:49;;;;;;;;;3.67;3.00;;;;;16.07;99.45;98065.94;4955780;28;103910;-73
2023/07/21 04:50:19;;;;;;;;;2.00;2.00;;;;;16.12;99.67;98067.91;4969326;28;102340;-73
2023/07/21 04:52:51;;;;;;;;;3.00;2.00;;;;;16.22;99.69;98071.59;4956496;28;102352;-74
2023/07/21 04:55:26;;;;;;;;;3.00;2.00;;;;;16.26;98.07;98069.19;4959800;28;102544;-73
2023/07/21 04:57:54;;;;;;;;;1.00;1.00;;;;;16.33;98.98;98073.41;4970358;27;103995;-73
2023/07/21 05:00:22;;;;;;;;;2.00;2.00;;;;;16.39;98.26;98074.31;4968370;28;102313;-73
2023/07/21 05:02:49;;;;;;;;;3.67;3.00;;;;;16.32;98.63;98046.38;4969604;28;102343;-73
2023/07/21 05:05:22;;;;;;;;;3.67;2.00;;;;;16.51;97.40;98066.84;4969685;28;102168;-73
2023/07/21 05:07:51;;;;;;;;;3.00;3.00;;;;;16.52;97.75;98065.78;4968134;27;103466;-73
2023/07/21 05:10:19;;;;;;;;;1.00;1.00;;;;;16.48;98.32;98067.34;4910031;28;103394;-71
2023/07/21 05:12:46;;;;;;;;;1.67;1.67;;;;;16.63;98.03;98083.97;4921252;27;102470;-73
2023/07/21 05:15:13;;;;;;;;;1.00;1.00;;;;;16.65;97.60;98084.53;4916969;27;102686;-73
2023/07/21 05:17:41;;;;;;;;;4.00;3.67;;;;;16.20;97.38;98021.13;4912072;27;104478;-73
2023/07/21 05:20:10;;;;;;;;;3.00;3.00;;;;;16.59;97.24;98082.81;4973023;27;103301;-75
2023/07/21 05:22:38;;;;;;;;;4.00;3.33;;;;;16.58;96.73;98094.81;4927576;27;102510;-73
2023/07/21 05:25:11;;;;;;;;;2.33;2.33;;;;;16.53;97.47;98087.34;4969600;27;102232;-73
2023/07/21 05:27:39;;;;;;;;;4.33;4.33;;;;;16.35;97.45;98079.44;4952349;27;103868;-73
2023/07/21 05:30:10;;;;;;;;;4.75;4.00;;;;;16.38;97.42;98089.03;4953340;28;102050;-73
2023/07/21 05:32:41;;;;;;;;;5.00;4.00;;;;;16.39;98.34;98107.88;4957676;28;102032;-73
2023/07/21 05:35:09;;;;;;;;;5.00;4.00;;;;;16.41;98.74;98115.81;4965228;28;108267;-73
2023/07/21 05:37:36;;;;;;;;;5.00;5.00;;;;;16.26;99.75;98085.56;4938148;28;103434;-73
2023/07/21 05:40:05;;;;;;;;;3.33;2.67;;;;;16.38;100.00;98102.69;4944554;28;102659;-73
2023/07/21 05:42:32;;;;;;;;;3.00;2.00;;;;;15.85;100.00;98029.59;4960902;28;102450;-74
2023/07/21 05:45:02;;;;;;;;;4.00;3.00;;;;;16.24;99.34;98099.47;4967016;28;102018;-74
2023/07/21 05:47:30;;;;;;;;;1.00;1.00;;;;;16.24;100.00;98109.56;4977219;27;103946;-74
2023/07/21 05:50:00;;;;;;;;;1.67;1.67;;;;;16.31;99.80;98116.47;4973524;27;102228;-73
2023/07/21 05:52:31;;;;;;;;;1.67;1.67;;;;;16.28;99.97;98122.44;4962273;28;102506;-73
2023/07/21 05:55:00;;;;;;;;;2.00;2.00;;;;;16.28;100.00;98127.91;4965835;28;102255;-72
2023/07/21 05:57:27;;;;;;;;;2.00;2.00;;;;;15.99;99.84;98079.97;4935626;28;108047;-73
2023/07/21 05:59:56;;;;;;;;;1.00;1.00;;;;;16.21;98.48;98116.31;4984013;27;102312;-73
2023/07/21 06:02:23;;;;;;;;;1.00;1.00;;;;;16.24;97.32;98137.66;4954945;28;102460;-72
2023/07/21 06:04:51;;;;;;;;;2.00;2.00;;;;;16.17;98.32;98125.25;4963155;27;102551;-73
2023/07/21 06:07:21;;;;;;;;;2.67;2.67;;;;;16.18;97.68;98125.00;4958320;28;103992;-73
2023/07/21 06:09:48;;;;;;;;;3.00;3.00;;;;;16.11;97.66;98121.63;4955538;28;102007;-73
2023/07/21 06:12:17;;;;;;;;;3.00;3.00;;;;;16.06;98.52;98116.91;4948997;28;102246;-72
2023/07/21 06:14:44;;;;;;;;;6.00;4.00;;;;;16.20;100.00;98146.59;4967762;27;102392;-72
2023/07/21 06:17:11;;;;;;;;;2.00;2.00;;;;;16.16;99.32;98142.72;4963918;28;104514;-73
2023/07/21 06:19:39;;;;;;;;;4.67;4.00;;;;;16.20;100.00;98141.13;4974452;28;102859;-72
2023/07/21 06:22:07;;;;;;;;;2.67;2.00;;;;;16.13;100.00;98129.56;4961476;28;102436;-72
2023/07/21 06:24:34;;;;;;;;;2.33;2.33;;;;;15.69;99.27;98053.03;4951014;28;104281;-72
2023/07/21 06:27:02;;;;;;;;;1.33;1.33;;;;;16.23;99.20;98146.91;4949312;28;104169;-72
2023/07/21 06:29:30;;;;;;;;;2.00;2.00;;;;;16.26;99.35;98140.97;4950880;28;102264;-72
2023/07/21 06:31:57;;;;;;;;;2.33;2.00;;;;;16.19;99.67;98110.31;4948222;28;102087;-72
2023/07/21 06:34:24;;;;;;;;;5.00;4.00;;;;;16.30;99.68;98114.81;4944009;28;102700;-72
2023/07/21 06:36:51;;;;;;;;;2.00;1.00;;;;;16.17;99.25;98103.44;4947799;28;105375;-74
2023/07/21 06:39:18;;;;;;;;;3.00;2.33;;;;;16.34;99.48;98126.09;4949965;28;101906;-74
2023/07/21 06:41:46;;;;;;;;;2.33;2.00;;;;;16.36;99.36;98130.22;4939906;28;101954;-73
2023/07/21 06:44:14;;;;;;;;;2.00;2.00;;;;;15.89;98.16;98047.94;4942685;28;104376;-73
2023/07/21 06:46:47;;;;;;;;;6.33;5.67;;;;;16.08;98.68;98090.22;4938776;28;104033;-73
2023/07/21 06:49:14;;;;;;;;;4.67;4.67;;;;;16.22;99.58;98106.22;4948720;28;102548;-73
2023/07/21 06:51:42;;;;;;;;;5.33;4.67;;;;;16.25;98.67;98094.84;4944658;28;103075;-73
2023/07/21 06:54:32;;;;;;;;;3.33;3.00;;;;;16.33;99.43;98097.97;4941526;28;102219;-72
2023/07/21 06:56:59;;;;;;;;;5.00;4.00;;;;;16.24;100.00;98083.09;4940821;28;109035;-72
2023/07/21 06:59:29;;;;;;;;;4.67;4.00;;;;;16.33;100.00;98075.31;4908850;28;102334;-72
2023/07/21 07:01:58;;;;;;;;;6.00;5.00;;;;;16.24;100.00;98066.75;4936629;28;102162;-72
2023/07/21 07:04:26;;;;;;;;;5.33;5.33;;;;;16.37;99.39;98080.03;4950645;28;102303;-72
2023/07/21 07:06:55;;;;;;;;;4.00;4.00;;;;;16.45;99.45;98092.41;4968488;28;108602;-72
2023/07/21 07:09:23;;;;;;;;;6.00;5.00;;;;;16.44;100.00;98104.38;4934802;28;102042;-72
2023/07/21 07:11:52;;;;;;;;;5.00;5.00;;;;;16.59;99.41;98121.03;4946902;28;102299;-72
2023/07/21 07:14:19;;;;;;;;;5.33;4.33;;;;;16.59;97.96;98074.63;4943241;28;102270;-72
2023/07/21 07:16:50;;;;;;;;;3.00;3.00;;;;;16.87;97.42;98101.78;4948415;28;108718;-72
2023/07/21 07:19:21;;;;;;;;;5.00;4.33;;;;;16.81;95.62;98078.19;4942270;28;102025;-72
2023/07/21 07:21:54;;;;;;;;;5.00;5.00;;;;;17.11;93.59;98104.25;4947104;28;105283;-72
2023/07/21 07:24:25;;;;;;;;;5.67;5.33;;;;;17.24;95.45;98114.78;4947320;28;102043;-72
2023/07/21 07:26:55;;;;;;;;;4.00;3.00;;;;;17.33;94.18;98110.50;4946379;28;111016;-72
2023/07/21 07:29:22;;;;;;;;;4.00;4.00;;;;;17.13;91.66;98064.66;4938736;28;102506;-72
2023/07/21 07:31:49;;;;;;;;;4.67;4.67;;;;;17.51;92.96;98101.97;4938548;28;102556;-72
2023/07/21 07:34:17;;;;;;;;;2.00;1.67;;;;;17.53;92.87;98096.22;4896764;28;103259;-73
2023/07/21 07:36:48;;;;;;;;;3.00;3.00;;;;;17.68;92.04;98110.09;4934678;28;103746;-72
2023/07/21 07:39:15;;;;;;;;;3.00;3.00;;;;;17.64;92.90;98079.72;4946085;28;102319;-72
2023/07/21 07:41:44;;;;;;;;;5.00;5.00;;;;;17.98;91.23;98098.59;4908706;28;102645;-73
2023/07/21 07:44:14;;;;;;;;;11.67;9.33;;;;;17.66;90.88;98088.47;4919084;28;103188;-72
2023/07/21 07:46:45;;;;;;;;;11.50;11.25;;;;;17.74;90.96;98081.72;4942114;28;109320;-72
2023/07/21 07:49:15;;;;;;;;;7.00;6.33;;;;;17.87;93.01;98096.88;4876423;28;102238;-72
2023/07/21 07:51:46;;;;;;;;;10.50;9.75;;;;;17.93;89.25;98091.16;4918088;28;102047;-72
2023/07/21 07:54:16;;;;;;;;;13.33;11.00;;;;;18.01;90.75;98092.63;4909985;28;104029;-73
2023/07/21 07:56:47;;;;;;;;;8.67;8.00;;;;;18.06;89.71;98095.38;4905182;28;104020;-73
2023/07/21 07:59:18;;;;;;;;;6.33;6.33;;;;;18.14;89.31;98100.38;4912493;28;102479;-73
2023/07/21 08:01:48;;;;;;;;;5.00;5.00;;;;;18.18;88.72;98094.13;4874696;28;102002;-72
2023/07/21 08:04:22;;;;;;;;;5.00;5.00;;;;;18.18;88.39;98083.19;4916836;28;102490;-72
2023/07/21 08:06:49;;;;;;;;;4.00;3.00;;;;;18.42;88.25;98094.53;4921119;28;104994;-71
2023/07/21 08:09:27;;;;;;;;;3.33;3.33;;;;;18.49;86.69;98089.69;4890452;28;102555;-72
2023/07/21 08:11:54;;;;;;;;;7.00;7.00;;;;;18.19;85.25;98079.34;4913330;28;102106;-72
2023/07/21 08:14:26;;;;;;;;;1.00;1.00;;;;;18.36;86.76;98101.09;4909653;28;102503;-72
2023/07/21 08:16:53;;;;;;;;;3.67;3.67;;;;;18.42;88.22;98104.66;4918402;28;104104;-72
2023/07/21 08:19:30;;;;;;;;;8.67;7.33;;;;;18.33;87.03;98115.28;4924572;28;102328;-71
2023/07/21 08:22:07;;;;;;;;;7.00;6.00;;;;;18.21;86.35;98109.19;4944461;28;102060;-72
2023/07/21 08:24:34;;;;;;;;;5.33;5.33;;;;;18.24;84.68;98116.84;4937109;28;102169;-71
2023/07/21 08:27:03;;;;;;;;;4.00;4.00;;;;;17.61;87.52;98003.66;4913276;28;103569;-72
2023/07/21 08:29:30;;;;;;;;;2.00;2.00;;;;;18.46;86.94;98125.78;4898279;28;102398;-73
2023/07/21 08:31:57;;;;;;;;;5.33;5.00;;;;;18.36;85.12;98100.28;4936916;28;102479;-73
2023/07/21 08:34:24;;;;;;;;;10.00;8.33;;;;;18.23;85.06;98093.34;4923744;28;101991;-73
2023/07/21 08:37:07;;;;;;;;;9.33;8.00;;;;;18.35;83.01;98109.56;4929703;28;105927;-71
2023/07/21 08:39:41;;;;;;;;;5.33;5.33;;;;;18.52;85.67;98099.28;4923808;28;103418;-72
2023/07/21 08:42:13;;;;;;;;;5.00;5.00;;;;;18.72;83.70;98099.44;4913162;28;102361;-72
2023/07/21 08:44:43;;;;;;;;;5.33;5.00;;;;;18.82;84.32;98087.72;4925256;28;102346;-71
2023/07/21 08:47:19;;;;;;;;;3.33;3.00;;;;;19.22;85.80;98093.38;4941374;28;108719;-72
2023/07/21 08:49:47;;;;;;;;;8.67;8.00;;;;;19.22;81.67;98087.06;4935245;28;102119;-73
2023/07/21 08:52:18;;;;;;;;;9.33;9.00;;;;;19.17;82.32;98079.63;4940958;28;102655;-72
2023/07/21 08:54:46;;;;;;;;;8.00;6.33;;;;;19.22;84.92;98076.91;4911831;28;103804;-72
2023/07/21 08:57:16;;;;;;;;;5.67;5.67;;;;;19.28;81.82;98095.00;4896497;28;108923;-72
2023/07/21 08:59:51;;;;;;;;;5.33;5.00;;;;;19.04;80.47;98045.34;4920269;28;107561;-71
2023/07/21 09:02:37;;;;;;;;;6.00;5.33;;;;;19.58;80.04;98097.06;4897167;28;102410;-72
2023/07/21 09:05:14;;;;;;;;;9.00;9.00;;;;;19.73;81.47;98101.72;4892956;28;102059;-72
2023/07/21 09:07:44;;;;;;;;;7.33;7.33;;;;;19.80;78.49;98107.78;4914151;28;109958;-72
2023/07/21 09:10:33;;;;;;;;;8.33;7.67;;;;;19.94;78.42;98106.16;4877250;28;102589;-72
2023/07/21 09:13:02;;;;;;;;;6.67;6.00;;;;;20.10;79.04;98105.06;4944123;28;104314;-72
2023/07/21 09:15:29;;;;;;;;;4.00;4.00;;;;;20.23;77.36;98106.41;4890612;28;102708;-72
2023/07/21 09:17:59;;;;;;;;;9.67;9.00;;;;;20.08;78.28;98112.75;4870040;28;103131;-72
2023/07/21 09:20:31;;;;;;;;;8.67;7.33;;;;;20.14;78.27;98094.34;4901022;28;102338;-72
2023/07/21 09:22:58;;;;;;;;;6.33;5.67;;;;;20.26;78.27;98097.66;4865919;28;102976;-72
2023/07/21 09:25:28;;;;;;;;;5.33;5.33;;;;;20.49;77.08;98117.13;4906440;28;102368;-72
2023/07/21 09:28:03;;;;;;;;;6.33;5.67;;;;;20.43;78.21;98115.53;4959852;28;103444;-72
2023/07/21 09:30:34;;;;;;;;;5.67;5.67;;;;;20.63;76.63;98122.88;4933695;28;102667;-72
2023/07/21 09:33:05;;;;;;;;;9.33;7.67;;;;;20.71;76.81;98121.53;4955755;28;102837;-72
2023/07/21 09:35:37;;;;;;;;;9.33;8.00;;;;;20.54;73.29;98119.06;4927243;28;103024;-72
2023/07/21 09:38:11;;;;;;;;;7.67;7.67;;;;;20.75;77.17;98115.19;4949813;28;103442;-71
2023/07/21 09:40:44;;;;;;;;;7.00;6.00;;;;;20.81;74.79;98099.50;4953437;28;102310;-71
2023/07/21 09:43:13;;;;;;;;;11.00;9.67;;;;;20.75;74.19;98095.13;4946723;28;102413;-71
2023/07/21 09:45:44;;;;;;;;;9.00;8.00;;;;;20.81;75.67;98083.00;4949131;28;102613;-72
2023/07/21 09:48:12;;;;;;;;;7.33;7.00;;;;;20.92;76.05;98101.13;4920333;28;106906;-72
2023/07/21 09:50:43;;;;;;;;;10.33;9.33;;;;;20.75;74.09;98059.41;4959308;28;101955;-72
2023/07/21 09:53:18;;;;;;;;;21.33;19.33;;;;;21.24;68.63;98098.84;4947000;28;105969;-72
2023/07/21 09:55:48;;;;;;;;;24.00;18.67;;;;;21.54;68.41;98088.75;4946361;28;102501;-72
2023/07/21 09:58:19;;;;;;;;;14.33;13.00;;;;;21.50;65.06;98085.75;4943015;28;110471;-72
2023/07/21 10:00:48;;;;;;;;;11.00;10.33;;;;;21.62;66.25;98088.16;4931902;28;103319;-73
2023/07/21 10:03:20;;;;;;;;;9.00;8.33;;;;;21.97;65.41;98090.72;4952092;28;102183;-72
2023/07/21 10:05:49;;;;;;;;;7.67;6.00;;;;;22.10;67.82;98090.06;4952978;28;102651;-72
2023/07/21 10:08:21;;;;;;;;;11.00;9.67;;;;;22.02;66.39;98093.41;4954182;28;104045;-72
2023/07/21 10:10:56;;;;;;;;;10.33;8.67;;;;;21.89;65.02;98080.25;4946366;28;102259;-71
2023/07/21 10:13:28;;;;;;;;;7.67;7.00;;;;;22.09;62.95;98099.44;4942039;28;102878;-72
2023/07/21 10:16:01;;;;;;;;;6.00;5.00;;;;;21.93;64.71;98089.63;4894274;28;104441;-72
2023/07/21 10:18:34;;;;;;;;;5.00;5.00;;;;;21.92;64.19;98087.97;4947827;28;104285;-71
2023/07/21 10:21:03;;;;;;;;;8.00;6.00;;;;;21.86;64.39;98071.75;4949460;28;102229;-72
2023/07/21 10:23:34;;;;;;;;;6.33;6.00;;;;;21.70;66.02;98047.09;4948372;28;102254;-71
2023/07/21 10:26:04;;;;;;;;;5.67;5.00;;;;;21.86;62.58;98056.06;4950782;28;102452;-71
2023/07/21 10:28:44;;;;;;;;;4.67;4.67;;;;;21.83;64.92;98067.66;4951496;28;104105;-72
2023/07/21 10:31:24;;;;;;;;;6.00;5.67;;;;;21.74;66.48;98069.38;4952823;28;102027;-71
2023/07/21 10:34:14;;;;;;;;;6.00;5.00;;;;;21.87;65.43;98062.41;4951992;28;102159;-71
2023/07/21 10:36:44;;;;;;;;;3.00;3.00;;;;;22.11;65.45;98069.66;4954248;28;103053;-72
2023/07/21 10:39:14;;;;;;;;;6.00;5.00;;;;;22.13;62.38;98077.63;4947490;28;108911;-72
2023/07/21 10:41:41;;;;;;;;;6.00;6.00;;;;;22.03;64.88;98040.00;4921850;28;102127;-72
2023/07/21 10:44:10;;;;;;;;;6.00;6.00;;;;;22.09;62.98;98049.88;4937644;28;102039;-72
2023/07/21 10:46:44;;;;;;;;;4.33;4.33;;;;;22.19;61.67;98060.78;4950392;28;102338;-72
2023/07/21 10:49:14;;;;;;;;;5.33;4.00;;;;;22.14;62.27;98052.56;4950187;28;108631;-72
2023/07/21 10:51:44;;;;;;;;;5.67;5.00;;;;;22.28;63.54;98058.22;4897863;28;102149;-72
2023/07/21 10:54:12;;;;;;;;;11.00;10.00;;;;;22.10;62.26;98046.00;4932825;28;102556;-72
2023/07/21 10:56:59;;;;;;;;;6.33;5.67;;;;;22.30;61.29;98066.19;4931025;28;103137;-72
2023/07/21 10:59:33;;;;;;;;;8.00;8.00;;;;;22.46;62.25;98068.53;4945697;28;111316;-72
2023/07/21 11:02:07;;;;;;;;;11.33;10.33;;;;;22.38;60.33;98068.34;4922850;28;103839;-72
2023/07/21 11:04:48;;;;;;;;;9.33;9.00;;;;;22.59;61.07;98058.75;4932759;28;102318;-73
2023/07/21 11:07:15;;;;;;;;;7.67;6.33;;;;;22.71;59.04;98052.84;4951285;28;102414;-71
2023/07/21 11:09:43;;;;;;;;;5.00;5.00;;;;;22.90;57.65;98046.28;4953388;28;108834;-72
2023/07/21 11:12:11;;;;;;;;;7.00;7.00;;;;;22.82;59.66;98033.16;4877250;28;102570;-72
2023/07/21 11:14:38;;;;;;;;;7.00;6.67;;;;;22.57;58.62;98011.34;4945891;28;103240;-72
2023/07/21 11:17:06;;;;;;;;;10.00;8.00;;;;;22.84;60.14;98033.66;4909764;28;102702;-72
2023/07/21 11:19:34;;;;;;;;;10.00;8.00;;;;;22.71;62.59;98008.75;4948958;28;104369;-73
2023/07/21 11:22:05;;;;;;;;;7.00;6.00;;;;;22.97;58.64;98015.59;4944333;28;102380;-73
2023/07/21 11:24:33;;;;;;;;;5.00;4.00;;;;;23.13;54.36;98023.38;4949537;28;102492;-72
2023/07/21 11:27:08;;;;;;;;;5.33;5.33;;;;;23.09;52.37;98016.81;4941849;28;102193;-72
2023/07/21 11:29:42;;;;;;;;;5.00;5.00;;;;;23.13;56.65;98004.06;4949732;28;103434;-72
2023/07/21 11:32:19;;;;;;;;;4.67;4.67;;;;;23.18;57.68;98010.63;4949780;28;102372;-73
2023/07/21 11:34:54;;;;;;;;;3.00;3.00;;;;;23.37;58.06;98011.47;4941683;28;102436;-74